createdAt,value
2022-11-25T00:01:45.988Z,47.30
2022-11-25T00:04:13.184Z,46.97
2022-11-25T00:06:40.253Z,47.37
2022-11-25T00:09:07.345Z,46.98
2022-11-25T00:11:34.451Z,47.31
2022-11-25T00:14:01.509Z,47.05
2022-11-25T00:16:28.720Z,47.07
2022-11-25T00:18:55.842Z,47.00
2022-11-25T00:21:22.959Z,47.06
2022-11-25T00:23:50.035Z,47.12
2022-11-25T00:26:17.137Z,47.24
2022-11-25T00:28:44.292Z,47.22
2022-11-25T00:31:11.385Z,47.19
2022-11-25T00:33:38.536Z,46.99
2022-11-25T00:36:05.602Z,46.96
2022-11-25T00:38:32.668Z,47.16
2022-11-25T00:41:18.756Z,46.96
2022-11-25T00:44:04.376Z,47.14
2022-11-25T00:46:31.460Z,47.01
2022-11-25T00:48:58.537Z,47.17
2022-11-25T00:51:25.631Z,47.10
2022-11-25T00:53:58.589Z,46.95
2022-11-25T00:56:26.133Z,47.22
2022-11-25T00:58:53.227Z,47.16
2022-11-25T01:01:20.398Z,47.12
2022-11-25T01:03:47.537Z,47.12
2022-11-25T01:06:14.623Z,47.09
2022-11-25T01:08:41.684Z,47.08
2022-11-25T01:11:08.772Z,46.95
2022-11-25T01:13:35.852Z,47.00
2022-11-25T01:16:03.047Z,47.20
2022-11-25T01:18:30.168Z,47.08
2022-11-25T01:20:57.286Z,46.96
2022-11-25T01:23:24.354Z,46.88
2022-11-25T01:25:51.428Z,47.09
2022-11-25T01:28:18.522Z,46.85
2022-11-25T01:30:45.598Z,47.21
2022-11-25T01:33:12.721Z,47.02
2022-11-25T01:35:39.797Z,46.84
2022-11-25T01:38:06.852Z,46.81
2022-11-25T01:40:33.938Z,46.96
2022-11-25T01:43:01.045Z,46.78
2022-11-25T01:45:28.898Z,46.90
2022-11-25T01:47:56.066Z,47.04
2022-11-25T01:50:23.132Z,47.07
2022-11-25T01:52:50.254Z,46.90
2022-11-25T01:55:17.344Z,46.89
2022-11-25T01:57:44.411Z,47.10
2022-11-25T02:00:11.493Z,46.77
2022-11-25T02:02:38.646Z,46.98
2022-11-25T02:05:05.803Z,47.09
2022-11-25T02:07:33.082Z,46.78
2022-11-25T02:10:00.335Z,46.83
2022-11-25T02:12:27.427Z,46.92
2022-11-25T02:14:54.485Z,46.88
2022-11-25T02:17:21.622Z,46.90
2022-11-25T02:19:48.701Z,46.78
2022-11-25T02:22:15.834Z,46.77
2022-11-25T02:24:42.908Z,46.79
2022-11-25T02:27:09.981Z,46.95
2022-11-25T02:29:37.052Z,46.82
2022-11-25T02:32:04.209Z,46.76
2022-11-25T02:34:31.324Z,46.57
2022-11-25T02:36:58.409Z,46.97
2022-11-25T02:39:25.481Z,46.82
2022-11-25T02:41:52.549Z,46.73
2022-11-25T02:44:20.324Z,46.90
2022-11-25T02:46:47.469Z,46.75
2022-11-25T02:49:14.599Z,46.88
2022-11-25T02:51:41.759Z,46.77
2022-11-25T02:54:08.811Z,46.58
2022-11-25T02:56:35.890Z,46.69
2022-11-25T02:59:02.980Z,46.84
2022-11-25T03:01:31.390Z,46.87
2022-11-25T03:03:58.702Z,46.71
2022-11-25T03:06:25.787Z,46.94
2022-11-25T03:08:52.897Z,46.66
2022-11-25T03:11:19.971Z,46.81
2022-11-25T03:13:47.046Z,46.81
2022-11-25T03:16:14.220Z,46.70
2022-11-25T03:18:41.367Z,46.71
2022-11-25T03:21:08.496Z,46.65
2022-11-25T03:23:35.565Z,46.59
2022-11-25T03:26:02.638Z,46.73
2022-11-25T03:28:29.791Z,46.75
2022-11-25T03:30:56.902Z,46.84
2022-11-25T03:33:24.034Z,46.80
2022-11-25T03:35:51.197Z,46.66
2022-11-25T03:38:18.318Z,46.52
2022-11-25T03:40:47.273Z,46.42
2022-11-25T03:43:14.354Z,46.69
2022-11-25T03:45:41.485Z,46.40
2022-11-25T03:48:08.996Z,46.52
2022-11-25T03:50:36.068Z,46.51
2022-11-25T03:53:03.154Z,46.42
2022-11-25T03:55:30.223Z,46.72
2022-11-25T03:57:57.356Z,46.78
2022-11-25T04:00:24.949Z,46.75
2022-11-25T04:02:52.060Z,46.67
2022-11-25T04:05:19.562Z,46.54
2022-11-25T04:07:46.723Z,46.48
2022-11-25T04:10:14.015Z,46.41
2022-11-25T04:12:47.082Z,46.29
2022-11-25T04:15:14.240Z,46.60
2022-11-25T04:17:41.328Z,46.57
2022-11-25T04:20:08.417Z,46.57
2022-11-25T04:22:35.480Z,46.48
2022-11-25T04:25:02.577Z,46.40
2022-11-25T04:27:29.837Z,46.42
2022-11-25T04:29:56.905Z,46.57
2022-11-25T04:32:23.972Z,46.61
2022-11-25T04:34:51.033Z,46.37
2022-11-25T04:37:18.119Z,46.40
2022-11-25T04:39:45.211Z,46.35
2022-11-25T04:42:41.439Z,46.51
2022-11-25T04:45:24.387Z,46.32
2022-11-25T04:47:51.818Z,46.51
2022-11-25T04:50:19.003Z,46.47
2022-11-25T04:52:46.111Z,46.51
2022-11-25T04:55:13.191Z,46.50
2022-11-25T04:57:40.339Z,46.38
2022-11-25T05:00:07.459Z,46.58
2022-11-25T05:02:34.685Z,46.42
2022-11-25T05:05:01.791Z,46.46
2022-11-25T05:07:28.994Z,46.41
2022-11-25T05:09:56.341Z,46.30
2022-11-25T05:12:23.441Z,46.35
2022-11-25T05:14:50.554Z,46.29
2022-11-25T05:17:17.733Z,46.59
2022-11-25T05:19:46.056Z,46.44
2022-11-25T05:22:13.193Z,46.48
2022-11-25T05:24:40.257Z,46.37
2022-11-25T05:27:07.324Z,46.54
2022-11-25T05:29:34.413Z,46.22
2022-11-25T05:32:01.558Z,46.21
2022-11-25T05:34:28.637Z,46.32
2022-11-25T05:36:55.756Z,46.18
2022-11-25T05:39:22.866Z,46.50
2022-11-25T05:41:49.949Z,46.33
2022-11-25T05:44:22.422Z,46.36
2022-11-25T05:46:50.213Z,46.08
2022-11-25T05:49:17.303Z,46.32
2022-11-25T05:51:44.378Z,46.46
2022-11-25T05:54:11.454Z,46.16
2022-11-25T05:56:38.866Z,46.14
2022-11-25T05:59:05.977Z,46.29
2022-11-25T06:01:33.210Z,46.17
2022-11-25T06:04:00.322Z,46.41
2022-11-25T06:06:27.494Z,46.28
2022-11-25T06:08:54.557Z,46.31
2022-11-25T06:11:21.617Z,46.08
2022-11-25T06:13:48.719Z,46.12
2022-11-25T06:16:15.835Z,46.27
2022-11-25T06:18:42.918Z,46.31
2022-11-25T06:21:10.030Z,46.28
2022-11-25T06:23:37.130Z,46.32
2022-11-25T06:26:04.238Z,45.94
2022-11-25T06:28:31.292Z,46.28
2022-11-25T06:30:58.383Z,46.21
2022-11-25T06:33:25.478Z,46.18
2022-11-25T06:35:52.554Z,46.01
2022-11-25T06:38:19.616Z,46.31
2022-11-25T06:40:46.689Z,45.90
2022-11-25T06:43:13.763Z,46.20
2022-11-25T06:45:40.825Z,46.12
2022-11-25T06:48:07.889Z,45.95
2022-11-25T06:50:34.954Z,46.08
2022-11-25T06:53:02.017Z,45.98
2022-11-25T06:55:29.091Z,45.92
2022-11-25T06:58:13.934Z,46.25
2022-11-25T07:00:43.215Z,45.98
2022-11-25T07:03:10.335Z,46.20
2022-11-25T07:05:37.441Z,46.20
2022-11-25T07:08:04.498Z,45.99
2022-11-25T07:10:31.565Z,46.00
2022-11-25T07:12:59.481Z,46.10
2022-11-25T07:15:26.548Z,46.04
2022-11-25T07:17:53.618Z,45.85
2022-11-25T07:20:20.682Z,45.99
2022-11-25T07:22:47.742Z,45.92
2022-11-25T07:25:14.824Z,46.09
2022-11-25T07:27:41.890Z,46.09
2022-11-25T07:31:09.365Z,46.11
2022-11-25T07:32:56.070Z,45.93
2022-11-25T07:35:23.146Z,45.92
2022-11-25T07:37:50.227Z,45.90
2022-11-25T07:40:17.316Z,46.25
2022-11-25T07:42:44.593Z,46.01
2022-11-25T07:45:11.726Z,46.02
2022-11-25T07:47:38.854Z,46.08
2022-11-25T07:50:05.929Z,45.99
2022-11-25T07:52:33.170Z,46.16
2022-11-25T07:55:00.258Z,45.90
2022-11-25T07:57:27.478Z,45.94
2022-11-25T07:59:54.533Z,45.86
2022-11-25T08:02:21.729Z,45.95
2022-11-25T08:04:48.919Z,45.85
2022-11-25T08:07:16.040Z,45.95
2022-11-25T08:09:43.148Z,45.87
2022-11-25T08:12:10.245Z,45.97
2022-11-25T08:14:37.305Z,45.60
2022-11-25T08:17:06.598Z,45.82
2022-11-25T08:19:33.706Z,45.60
2022-11-25T08:22:00.834Z,45.96
2022-11-25T08:24:28.225Z,45.76
2022-11-25T08:26:58.585Z,45.79
2022-11-25T08:29:25.653Z,45.69
2022-11-25T08:31:52.767Z,45.76
2022-11-25T08:34:20.009Z,45.74
2022-11-25T08:36:48.892Z,45.78
2022-11-25T08:39:44.212Z,45.79
2022-11-25T08:42:04.556Z,45.60
2022-11-25T08:44:31.651Z,45.83
2022-11-25T08:46:58.925Z,45.81
2022-11-25T08:49:27.021Z,45.89
2022-11-25T08:51:54.137Z,45.67
2022-11-25T08:54:21.198Z,45.67
2022-11-25T08:56:48.321Z,45.62
2022-11-25T08:59:15.389Z,45.71
2022-11-25T09:01:42.731Z,45.82
2022-11-25T09:04:09.873Z,45.64
2022-11-25T09:06:36.966Z,45.64
2022-11-25T09:09:06.057Z,45.48
2022-11-25T09:11:33.246Z,45.33
2022-11-25T09:14:00.427Z,45.20
2022-11-25T09:16:28.498Z,45.23
2022-11-25T09:18:56.470Z,45.27
2022-11-25T09:21:25.135Z,45.17
2022-11-25T09:23:52.677Z,45.19
2022-11-25T09:26:19.769Z,44.95
2022-11-25T09:28:46.843Z,45.28
2022-11-25T09:31:14.320Z,44.87
2022-11-25T09:33:41.447Z,45.19
2022-11-25T09:36:08.522Z,45.77
2022-11-25T09:38:42.813Z,45.35
2022-11-25T09:41:10.273Z,44.94
2022-11-25T09:43:56.213Z,44.79
2022-11-25T09:46:41.894Z,45.08
2022-11-25T09:49:09.015Z,45.03
2022-11-25T09:51:36.349Z,45.21
2022-11-25T09:54:03.411Z,45.14
2022-11-25T09:56:30.522Z,44.90
2022-11-25T09:58:57.583Z,44.97
2022-11-25T10:01:24.706Z,45.11
2022-11-25T10:03:51.777Z,44.95
2022-11-25T10:06:18.939Z,45.08
2022-11-25T10:08:46.089Z,45.15
2022-11-25T10:11:13.160Z,45.00
2022-11-25T10:13:40.236Z,45.00
2022-11-25T10:16:07.386Z,44.90
2022-11-25T10:18:34.507Z,45.13
2022-11-25T10:21:01.581Z,44.90
2022-11-25T10:23:28.807Z,45.04
2022-11-25T10:25:55.971Z,44.83
2022-11-25T10:28:23.106Z,45.04
2022-11-25T10:30:50.950Z,44.89
2022-11-25T10:33:18.139Z,44.91
2022-11-25T10:35:45.215Z,44.77
2022-11-25T10:38:17.480Z,45.01
2022-11-25T10:40:46.204Z,44.65
2022-11-25T10:43:14.076Z,44.83
2022-11-25T10:45:41.235Z,44.96
2022-11-25T10:48:08.297Z,44.99
2022-11-25T10:50:35.357Z,44.79
2022-11-25T10:53:02.488Z,45.05
2022-11-25T10:55:29.552Z,44.98
2022-11-25T10:57:56.638Z,45.04
2022-11-25T11:00:23.821Z,45.09
2022-11-25T11:02:50.944Z,46.07
2022-11-25T11:05:18.281Z,45.54
2022-11-25T11:07:45.391Z,45.85
2022-11-25T11:10:12.509Z,45.55
2022-11-25T11:12:39.576Z,45.54
2022-11-25T11:15:06.636Z,45.66
2022-11-25T11:17:36.759Z,45.31
2022-11-25T11:20:04.474Z,45.52
2022-11-25T11:22:31.558Z,45.44
2022-11-25T11:24:58.624Z,45.25
2022-11-25T11:27:25.692Z,45.59
2022-11-25T11:29:52.765Z,45.71
2022-11-25T11:32:19.853Z,45.63
2022-11-25T11:34:47.071Z,45.34
2022-11-25T11:37:14.142Z,45.42
2022-11-25T11:39:41.215Z,45.63
2022-11-25T11:42:08.291Z,45.28
2022-11-25T11:44:35.575Z,45.56
2022-11-25T11:47:03.059Z,45.37
2022-11-25T11:49:30.885Z,45.41
2022-11-25T11:51:58.731Z,45.45
2022-11-25T11:54:25.824Z,45.48
2022-11-25T11:56:55.528Z,45.39
2022-11-25T11:59:22.862Z,45.53
2022-11-25T12:01:49.981Z,45.34
2022-11-25T12:04:17.079Z,45.41
2022-11-25T12:06:44.189Z,45.31
2022-11-25T12:09:11.254Z,45.53
2022-11-25T12:11:38.330Z,45.39
2022-11-25T12:14:05.506Z,45.45
2022-11-25T12:16:32.794Z,45.19
2022-11-25T12:18:59.918Z,45.42
2022-11-25T12:21:26.999Z,45.11
2022-11-25T12:23:54.907Z,45.52
2022-11-25T12:26:22.441Z,45.18
2022-11-25T12:28:49.498Z,45.45
2022-11-25T12:31:16.676Z,45.29
2022-11-25T12:33:43.810Z,45.15
2022-11-25T12:36:11.238Z,45.56
2022-11-25T12:38:38.395Z,45.27
2022-11-25T12:41:05.450Z,45.31
2022-11-25T12:43:32.534Z,45.14
2022-11-25T12:45:59.678Z,45.32
2022-11-25T12:48:27.702Z,45.23
2022-11-25T12:50:54.873Z,45.15
2022-11-25T12:53:24.285Z,45.29
2022-11-25T12:55:51.377Z,45.38
2022-11-25T12:58:18.506Z,45.11
2022-11-25T13:00:46.554Z,45.36
2022-11-25T13:03:14.286Z,45.17
2022-11-25T13:05:41.497Z,45.20
2022-11-25T13:08:08.574Z,45.27
2022-11-25T13:10:35.741Z,45.36
2022-11-25T13:13:03.123Z,45.39
2022-11-25T13:15:31.024Z,45.24
2022-11-25T13:17:58.403Z,45.34
2022-11-25T13:20:25.530Z,45.36
2022-11-25T13:22:53.283Z,45.38
2022-11-25T13:25:20.371Z,45.41
2022-11-25T13:27:47.479Z,45.62
2022-11-25T13:30:14.538Z,45.59
2022-11-25T13:32:42.330Z,45.58
2022-11-25T13:35:09.441Z,45.33
2022-11-25T13:37:36.860Z,45.24
2022-11-25T13:40:04.039Z,45.04
2022-11-25T13:42:31.205Z,45.02
2022-11-25T13:44:58.286Z,44.95
2022-11-25T13:47:25.365Z,44.83
2022-11-25T13:49:52.430Z,44.86
2022-11-25T13:52:19.504Z,44.89
2022-11-25T13:54:46.561Z,45.18
2022-11-25T13:57:13.631Z,44.89
2022-11-25T13:59:40.707Z,44.99
2022-11-25T14:02:07.850Z,45.17
2022-11-25T14:04:35.203Z,45.26
2022-11-25T14:07:02.507Z,45.25
2022-11-25T14:09:29.573Z,45.18
2022-11-25T14:11:56.653Z,45.10
2022-11-25T14:14:23.828Z,44.90
2022-11-25T14:16:51.021Z,45.25
2022-11-25T14:22:05.255Z,45.31
2022-11-25T14:24:32.441Z,45.25
2022-11-25T14:26:59.499Z,44.95
2022-11-25T14:29:28.277Z,45.04
2022-11-25T14:31:55.868Z,44.96
2022-11-25T14:34:22.998Z,45.17
2022-11-25T14:36:50.066Z,45.50
2022-11-25T14:39:17.147Z,45.29
2022-11-25T14:41:44.328Z,45.54
2022-11-25T14:44:11.618Z,45.33
2022-11-25T14:46:38.694Z,45.42
2022-11-25T14:49:18.934Z,45.52
2022-11-25T14:51:54.180Z,45.50
2022-11-25T14:54:21.767Z,45.20
2022-11-25T14:56:49.159Z,45.49
2022-11-25T14:59:16.238Z,45.85
2022-11-25T15:01:43.314Z,45.70
2022-11-25T15:04:10.501Z,45.62
2022-11-25T15:06:37.630Z,45.36
2022-11-25T15:09:04.699Z,45.87
2022-11-25T15:11:32.059Z,45.77
2022-11-25T15:13:59.199Z,45.81
2022-11-25T15:16:30.035Z,45.46
2022-11-25T15:18:57.186Z,45.86
2022-11-25T15:21:24.261Z,45.67
2022-11-25T15:23:51.334Z,45.94
2022-11-25T15:26:18.646Z,46.03
2022-11-25T15:28:45.918Z,45.76
2022-11-25T15:31:13.129Z,45.63
2022-11-25T15:33:40.259Z,45.95
2022-11-25T15:36:07.387Z,46.15
2022-11-25T15:38:34.738Z,46.04
2022-11-25T15:41:01.802Z,46.61
2022-11-25T15:43:29.806Z,46.44
2022-11-25T15:45:57.762Z,47.14
2022-11-25T15:48:24.924Z,46.66
2022-11-25T15:50:51.992Z,46.65
2022-11-25T15:53:23.384Z,46.69
2022-11-25T15:55:51.922Z,46.44
2022-11-25T15:58:19.006Z,46.36
2022-11-25T16:00:46.341Z,47.03
2022-11-25T16:03:13.478Z,47.01
2022-11-25T16:05:40.576Z,47.35
2022-11-25T16:08:07.654Z,46.90
2022-11-25T16:10:34.894Z,47.04
2022-11-25T16:13:01.988Z,46.68
2022-11-25T16:15:29.089Z,46.98
2022-11-25T16:18:06.863Z,47.23
2022-11-25T16:20:43.261Z,48.57
2022-11-25T16:23:10.328Z,47.58
2022-11-25T16:25:37.405Z,47.30
2022-11-25T16:28:04.475Z,47.61
2022-11-25T16:30:34.683Z,47.10
2022-11-25T16:33:01.754Z,47.62
2022-11-25T16:35:28.828Z,47.36
2022-11-25T16:37:55.898Z,47.68
2022-11-25T16:40:23.245Z,47.73
2022-11-25T16:42:50.415Z,47.84
2022-11-25T16:45:17.515Z,47.89
2022-11-25T16:47:44.579Z,47.69
2022-11-25T16:50:14.241Z,47.68
2022-11-25T16:52:41.537Z,47.96
2022-11-25T16:55:08.625Z,48.15
2022-11-25T16:57:35.692Z,48.00
2022-11-25T17:00:07.782Z,47.92
2022-11-25T17:02:34.983Z,47.65
2022-11-25T17:05:02.122Z,47.66
2022-11-25T17:07:33.708Z,47.89
2022-11-25T17:10:01.197Z,47.78
2022-11-25T17:12:28.265Z,48.14
2022-11-25T17:14:55.428Z,48.16
2022-11-25T17:17:24.441Z,48.12
2022-11-25T17:19:51.945Z,48.40
2022-11-25T17:22:19.081Z,48.31
2022-11-25T17:24:46.452Z,48.99
2022-11-25T17:27:13.529Z,48.40
2022-11-25T17:29:40.842Z,47.94
2022-11-25T17:32:08.221Z,48.48
2022-11-25T17:34:39.388Z,48.52
2022-11-25T17:37:06.695Z,47.86
2022-11-25T17:39:33.773Z,48.30
2022-11-25T17:42:02.292Z,47.99
2022-11-25T17:44:29.400Z,48.11
2022-11-25T17:46:56.529Z,47.94
2022-11-25T17:49:23.640Z,48.62
2022-11-25T17:51:50.737Z,48.84
2022-11-25T17:54:17.872Z,48.65
2022-11-25T17:56:50.580Z,48.54
2022-11-25T17:59:19.466Z,48.64
2022-11-25T18:01:46.790Z,47.91
2022-11-25T18:04:16.371Z,48.73
2022-11-25T18:06:43.987Z,48.78
2022-11-25T18:09:11.353Z,47.50
2022-11-25T18:11:42.509Z,48.79
2022-11-25T18:14:12.543Z,47.68
2022-11-25T18:16:41.394Z,48.14
2022-11-25T18:19:08.557Z,47.90
2022-11-25T18:21:35.627Z,47.96
2022-11-25T18:24:02.799Z,47.73
2022-11-25T18:26:29.912Z,48.74
2022-11-25T18:28:56.974Z,47.97
2022-11-25T18:31:24.214Z,48.25
2022-11-25T18:33:51.366Z,48.50
2022-11-25T18:36:18.526Z,48.08
2022-11-25T18:38:48.293Z,47.99
2022-11-25T18:41:15.397Z,48.03
2022-11-25T18:43:42.477Z,48.17
2022-11-25T18:46:09.792Z,47.85
2022-11-25T18:48:37.113Z,48.30
2022-11-25T18:51:04.919Z,48.32
2022-11-25T18:53:33.538Z,48.24
2022-11-25T18:56:00.634Z,48.20
2022-11-25T18:58:35.447Z,48.45
2022-11-25T19:01:03.201Z,48.96
2022-11-25T19:03:30.421Z,48.32
2022-11-25T19:05:59.469Z,48.29
2022-11-25T19:08:26.572Z,48.21
2022-11-25T19:10:53.688Z,48.40
2022-11-25T19:13:20.767Z,48.83
2022-11-25T19:15:47.978Z,48.33
2022-11-25T19:18:15.767Z,48.91
2022-11-25T19:20:42.902Z,48.94
2022-11-25T19:23:10.049Z,48.92
2022-11-25T19:25:37.161Z,48.42
2022-11-25T19:28:04.227Z,48.91
2022-11-25T19:30:31.303Z,49.11
2022-11-25T19:32:58.385Z,48.78
2022-11-25T19:35:25.473Z,48.52
2022-11-25T19:37:52.555Z,48.63
2022-11-25T19:40:19.683Z,49.09
2022-11-25T19:42:48.522Z,48.63
2022-11-25T19:45:15.954Z,49.01
2022-11-25T19:47:43.073Z,48.64
2022-11-25T19:50:10.153Z,48.21
2022-11-25T19:52:37.973Z,47.95
2022-11-25T19:55:05.057Z,48.27
2022-11-25T19:57:32.146Z,48.81
2022-11-25T19:59:59.653Z,49.41
2022-11-25T20:02:27.222Z,48.72
2022-11-25T20:04:55.702Z,49.47
2022-11-25T20:07:22.963Z,49.65
2022-11-25T20:09:51.500Z,50.03
2022-11-25T20:12:19.077Z,50.18
2022-11-25T20:14:46.496Z,50.07
2022-11-25T20:17:13.610Z,50.36
2022-11-25T20:19:40.694Z,49.63
2022-11-25T20:22:07.801Z,50.28
2022-11-25T20:24:35.079Z,49.47
2022-11-25T20:27:02.321Z,50.40
2022-11-25T20:29:30.766Z,49.93
2022-11-25T20:32:05.080Z,50.41
2022-11-25T20:34:42.195Z,50.27
2022-11-25T20:37:09.599Z,49.57
2022-11-25T20:39:36.689Z,49.86
2022-11-25T20:42:03.803Z,50.02
2022-11-25T20:44:30.998Z,49.59
2022-11-25T20:46:58.092Z,50.14
2022-11-25T20:49:29.426Z,50.52
2022-11-25T20:51:56.612Z,50.15
2022-11-25T20:54:30.382Z,50.68
2022-11-25T20:56:57.632Z,49.65
2022-11-25T20:59:24.817Z,50.06
2022-11-25T21:01:52.798Z,49.83
2022-11-25T21:04:20.059Z,50.29
2022-11-25T21:06:47.207Z,49.38
2022-11-25T21:09:14.291Z,49.28
2022-11-25T21:11:41.385Z,49.69
2022-11-25T21:14:08.730Z,49.76
2022-11-25T21:16:36.971Z,49.39
2022-11-25T21:19:05.597Z,49.59
2022-11-25T21:21:32.703Z,49.42
2022-11-25T21:23:59.831Z,48.76
2022-11-25T21:26:27.743Z,49.29
2022-11-25T21:28:54.914Z,49.41
2022-11-25T21:31:22.141Z,49.19
2022-11-25T21:33:49.258Z,49.57
2022-11-25T21:36:16.326Z,49.21
2022-11-25T21:38:44.049Z,49.19
2022-11-25T21:41:11.232Z,49.22
2022-11-25T21:43:38.311Z,49.20
2022-11-25T21:46:05.401Z,48.69
2022-11-25T21:48:32.564Z,48.78
2022-11-25T21:50:59.655Z,49.08
2022-11-25T21:53:26.782Z,49.10
2022-11-25T21:55:54.080Z,48.58
2022-11-25T21:58:21.464Z,48.86
2022-11-25T22:00:51.159Z,48.40
2022-11-25T22:03:18.470Z,48.56
2022-11-25T22:05:45.568Z,48.86
2022-11-25T22:08:12.641Z,48.36
2022-11-25T22:10:39.745Z,48.12
2022-11-25T22:13:06.940Z,47.74
2022-11-25T22:15:34.080Z,48.24
2022-11-25T22:18:01.166Z,47.97
2022-11-25T22:20:28.283Z,48.51
2022-11-25T22:22:55.407Z,48.65
2022-11-25T22:25:22.752Z,48.75
2022-11-25T22:27:49.839Z,48.69
2022-11-25T22:30:17.336Z,48.38
2022-11-25T22:32:44.515Z,48.41
2022-11-25T22:35:11.611Z,48.71
2022-11-25T22:37:38.710Z,48.81
2022-11-25T22:40:05.776Z,48.76
2022-11-25T22:42:32.853Z,49.24
2022-11-25T22:44:59.968Z,49.30
2022-11-25T22:47:27.100Z,49.01
2022-11-25T22:49:54.223Z,48.70
2022-11-25T22:52:21.405Z,48.57
2022-11-25T22:54:48.492Z,49.28
2022-11-25T22:57:15.564Z,48.75
2022-11-25T22:59:43.196Z,48.91
2022-11-25T23:02:10.329Z,48.46
2022-11-25T23:04:37.695Z,49.13
2022-11-25T23:07:04.984Z,49.47
2022-11-25T23:09:32.047Z,49.47
2022-11-25T23:11:59.153Z,49.51
2022-11-25T23:14:26.212Z,49.25
2022-11-25T23:16:53.319Z,49.53
2022-11-25T23:19:20.401Z,49.37
2022-11-25T23:21:47.481Z,49.15
2022-11-25T23:24:14.548Z,49.24
2022-11-25T23:26:41.640Z,49.66
2022-11-25T23:29:08.764Z,49.28
2022-11-25T23:31:35.966Z,49.80
2022-11-25T23:34:03.108Z,49.27
2022-11-25T23:36:30.170Z,49.46
2022-11-25T23:38:57.242Z,48.97
2022-11-25T23:41:24.326Z,48.94
2022-11-25T23:43:51.466Z,49.13
2022-11-25T23:46:18.601Z,48.82
2022-11-25T23:48:45.784Z,48.86
2022-11-25T23:51:12.889Z,49.00
2022-11-25T23:53:39.960Z,49.04
2022-11-25T23:56:07.029Z,48.74
2022-11-25T23:58:34.125Z,49.01
